createdAt,value
2017-07-06T00:01:05.582Z,6.30
2017-07-06T00:03:35.246Z,5.87
2017-07-06T00:06:04.936Z,6.62
2017-07-06T00:08:34.635Z,6.12
2017-07-06T00:11:04.327Z,6.00
2017-07-06T00:13:33.969Z,6.35
2017-07-06T00:16:03.658Z,6.20
2017-07-06T00:18:33.327Z,5.78
2017-07-06T00:21:03.784Z,6.47
2017-07-06T00:23:33.456Z,6.00
2017-07-06T00:26:03.930Z,5.70
2017-07-06T00:28:33.586Z,5.75
2017-07-06T00:31:04.066Z,5.55
2017-07-06T00:33:33.716Z,5.87
2017-07-06T00:36:03.416Z,6.10
2017-07-06T00:38:33.093Z,6.10
2017-07-06T00:41:02.753Z,6.10
2017-07-06T00:43:32.439Z,6.20
2017-07-06T00:46:02.125Z,5.50
2017-07-06T00:48:31.852Z,5.18
2017-07-06T00:51:01.525Z,5.70
2017-07-06T00:53:31.202Z,5.60
2017-07-06T00:56:01.651Z,6.07
2017-07-06T00:58:32.086Z,5.82
2017-07-06T01:01:01.753Z,5.28
2017-07-06T01:03:31.239Z,5.47
2017-07-06T01:06:00.927Z,6.05
2017-07-06T01:08:30.627Z,5.75
2017-07-06T01:11:00.324Z,5.60
2017-07-06T01:13:29.958Z,5.03
2017-07-06T01:15:59.663Z,5.10
2017-07-06T01:18:29.537Z,5.05
2017-07-06T01:20:59.236Z,5.85
2017-07-06T01:23:28.915Z,5.60
2017-07-06T01:25:59.382Z,5.85
2017-07-06T01:28:29.141Z,5.40
2017-07-06T01:30:58.137Z,5.18
2017-07-06T01:33:27.590Z,5.60
2017-07-06T01:35:57.104Z,5.03
2017-07-06T01:38:26.768Z,6.53
2017-07-06T01:40:56.455Z,5.65
2017-07-06T01:43:26.886Z,5.65
2017-07-06T01:45:56.999Z,6.00
2017-07-06T01:48:26.322Z,5.95
2017-07-06T01:50:55.486Z,6.40
2017-07-06T01:53:24.800Z,5.55
2017-07-06T01:55:54.561Z,4.97
2017-07-06T01:58:23.689Z,6.15
2017-07-06T02:00:53.181Z,6.22
2017-07-06T02:03:22.854Z,5.65
2017-07-06T02:05:52.565Z,6.18
2017-07-06T02:08:23.652Z,6.22
2017-07-06T02:10:53.326Z,6.22
2017-07-06T02:13:22.986Z,6.12
2017-07-06T02:15:53.390Z,6.40
2017-07-06T02:18:23.065Z,5.80
2017-07-06T02:20:52.747Z,6.22
2017-07-06T02:23:23.207Z,5.45
2017-07-06T02:25:52.885Z,5.75
2017-07-06T02:28:23.339Z,8.45
2017-07-06T02:30:53.023Z,5.75
2017-07-06T02:33:23.475Z,6.10
2017-07-06T02:35:53.135Z,5.40
2017-07-06T02:38:22.832Z,6.60
2017-07-06T02:40:52.531Z,5.72
2017-07-06T02:43:22.238Z,5.85
2017-07-06T02:45:51.911Z,5.87
2017-07-06T02:48:21.591Z,6.37
2017-07-06T02:50:51.247Z,6.00
2017-07-06T02:53:20.927Z,6.28
2017-07-06T02:55:51.341Z,5.50
2017-07-06T02:58:21.804Z,5.85
2017-07-06T03:00:51.454Z,6.60
2017-07-06T03:03:21.132Z,6.15
2017-07-06T03:05:50.837Z,6.40
2017-07-06T03:08:20.532Z,6.10
2017-07-06T03:10:50.213Z,5.97
2017-07-06T03:13:19.875Z,6.35
2017-07-06T03:15:50.329Z,8.10
2017-07-06T03:18:19.997Z,6.85
2017-07-06T03:20:49.665Z,6.07
2017-07-06T03:23:20.100Z,6.18
2017-07-06T03:25:49.855Z,6.50
2017-07-06T03:28:19.328Z,7.03
2017-07-06T03:30:49.010Z,5.70
2017-07-06T03:33:19.447Z,6.55
2017-07-06T03:35:49.880Z,6.32
2017-07-06T03:38:19.574Z,31.05
2017-07-06T03:40:49.259Z,9.32
2017-07-06T03:43:18.922Z,6.95
2017-07-06T03:45:48.606Z,7.80
2017-07-06T03:48:19.076Z,13.48
2017-07-06T03:50:48.766Z,10.52
2017-07-06T03:53:18.452Z,9.10
2017-07-06T03:55:48.889Z,9.30
2017-07-06T03:58:19.362Z,71.82
2017-07-06T04:00:49.039Z,16.37
2017-07-06T04:03:18.808Z,11.20
2017-07-06T04:05:48.128Z,15.38
2017-07-06T04:08:18.407Z,9.90
2017-07-06T04:10:48.081Z,13.45
2017-07-06T04:13:17.790Z,10.02
2017-07-06T04:15:47.468Z,9.40
2017-07-06T04:18:17.162Z,8.00
2017-07-06T04:20:46.839Z,9.20
2017-07-06T04:23:16.524Z,8.52
2017-07-06T04:25:46.973Z,8.35
2017-07-06T04:28:16.678Z,144.98
2017-07-06T04:30:46.363Z,10.63
2017-07-06T04:33:16.083Z,9.07
2017-07-06T04:35:45.771Z,19.05
2017-07-06T04:38:16.144Z,9.95
2017-07-06T04:40:45.839Z,12.18
2017-07-06T04:43:15.567Z,12.10
2017-07-06T04:45:45.282Z,295.23
2017-07-06T04:48:14.954Z,19.00
2017-07-06T04:50:44.667Z,10.70
2017-07-06T04:53:14.156Z,8.85
2017-07-06T04:55:43.839Z,8.38
2017-07-06T04:58:13.510Z,8.63
2017-07-06T05:00:44.097Z,9.05
2017-07-06T05:03:13.789Z,10.32
2017-07-06T05:05:43.484Z,9.38
2017-07-06T05:08:13.147Z,8.73
2017-07-06T05:10:43.001Z,9.27
2017-07-06T05:13:13.435Z,7.60
2017-07-06T05:15:42.445Z,9.13
2017-07-06T05:18:12.124Z,9.02
2017-07-06T05:20:42.598Z,8.35
2017-07-06T05:23:12.114Z,7.27
2017-07-06T05:25:41.809Z,7.22
2017-07-06T05:28:11.202Z,7.10
2017-07-06T05:30:40.595Z,8.03
2017-07-06T05:33:10.018Z,7.57
2017-07-06T05:35:39.424Z,7.17
2017-07-06T05:38:08.837Z,8.70
2017-07-06T05:40:38.824Z,6.50
2017-07-06T05:43:08.228Z,7.00
2017-07-06T05:45:37.273Z,7.20
2017-07-06T05:48:06.680Z,6.13
2017-07-06T05:50:36.105Z,6.63
2017-07-06T05:53:05.512Z,7.23
2017-07-06T05:55:34.934Z,7.60
2017-07-06T05:58:04.358Z,6.20
2017-07-06T06:00:33.824Z,7.73
2017-07-06T06:03:03.249Z,7.00
2017-07-06T06:05:33.425Z,6.40
2017-07-06T06:08:02.838Z,6.07
2017-07-06T06:10:31.565Z,5.50
2017-07-06T06:13:00.963Z,5.50
2017-07-06T06:15:30.397Z,6.83
2017-07-06T06:17:59.809Z,5.77
2017-07-06T06:20:29.980Z,7.10
2017-07-06T06:22:59.415Z,5.60
2017-07-06T06:25:28.818Z,5.63
2017-07-06T06:27:58.990Z,6.00
2017-07-06T06:30:28.394Z,5.80
2017-07-06T06:32:57.791Z,5.83
2017-07-06T06:35:27.340Z,5.57
2017-07-06T06:37:56.744Z,5.70
2017-07-06T06:40:26.180Z,5.00
2017-07-06T06:42:56.326Z,6.23
2017-07-06T06:45:25.554Z,6.00
2017-07-06T06:47:55.059Z,7.03
2017-07-06T06:50:24.462Z,5.30
2017-07-06T06:52:53.853Z,5.90
2017-07-06T06:55:22.418Z,5.83
2017-07-06T06:57:51.835Z,4.90
2017-07-06T07:00:21.292Z,4.43
2017-07-06T07:02:50.934Z,4.03
2017-07-06T07:05:20.353Z,3.07
2017-07-06T07:07:49.758Z,2.90
2017-07-06T07:10:19.206Z,3.10
2017-07-06T07:12:49.401Z,2.80
2017-07-06T07:15:18.829Z,2.73
2017-07-06T07:17:49.004Z,3.90
2017-07-06T07:20:18.327Z,3.00
2017-07-06T07:22:48.497Z,3.00
2017-07-06T07:25:17.892Z,3.10
2017-07-06T07:27:47.336Z,3.20
2017-07-06T07:30:17.496Z,3.43
2017-07-06T07:32:46.895Z,3.40
2017-07-06T07:35:16.298Z,2.30
2017-07-06T07:37:45.720Z,3.43
2017-07-06T07:40:15.127Z,3.57
2017-07-06T07:42:44.526Z,4.97
2017-07-06T07:45:13.936Z,1.80
2017-07-06T07:47:43.344Z,2.53
2017-07-06T07:50:12.776Z,1.80
2017-07-06T07:52:42.944Z,2.13
2017-07-06T07:55:12.359Z,2.13
2017-07-06T07:57:41.780Z,1.97
2017-07-06T08:00:11.034Z,2.30
2017-07-06T08:02:40.230Z,1.90
2017-07-06T08:05:09.647Z,2.60
2017-07-06T08:07:39.034Z,2.93
2017-07-06T08:10:08.455Z,1.90
2017-07-06T08:12:37.844Z,2.20
2017-07-06T08:15:07.270Z,2.20
2017-07-06T08:17:36.644Z,2.07
2017-07-06T08:20:06.066Z,1.90
2017-07-06T08:22:35.471Z,2.60
2017-07-06T08:25:04.898Z,2.20
2017-07-06T08:27:34.308Z,2.20
2017-07-06T08:30:03.752Z,2.00
2017-07-06T08:32:33.948Z,1.63
2017-07-06T08:35:03.350Z,2.07
2017-07-06T08:37:32.741Z,1.80
2017-07-06T08:40:02.144Z,1.93
2017-07-06T08:42:31.561Z,1.67
2017-07-06T08:45:00.958Z,1.90
2017-07-06T08:47:30.386Z,2.10
2017-07-06T08:50:00.550Z,2.90
2017-07-06T08:52:29.986Z,2.37
2017-07-06T08:54:59.376Z,2.70
2017-07-06T08:57:28.778Z,2.30
2017-07-06T08:59:58.173Z,2.17
2017-07-06T09:02:27.602Z,2.17
2017-07-06T09:04:57.000Z,2.00
2017-07-06T09:07:26.515Z,2.37
2017-07-06T09:09:55.928Z,2.67
2017-07-06T09:12:25.326Z,2.90
2017-07-06T09:14:54.713Z,2.53
2017-07-06T09:17:24.115Z,2.40
2017-07-06T09:19:53.557Z,2.80
2017-07-06T09:22:23.717Z,2.40
2017-07-06T09:24:53.140Z,5.57
2017-07-06T09:27:22.561Z,2.90
2017-07-06T09:29:51.270Z,3.17
2017-07-06T09:32:21.458Z,2.47
2017-07-06T09:34:50.854Z,2.97
2017-07-06T09:37:20.246Z,3.33
2017-07-06T09:39:49.701Z,3.30
2017-07-06T09:42:19.876Z,2.93
2017-07-06T09:44:49.285Z,3.47
2017-07-06T09:47:18.689Z,5.63
2017-07-06T09:49:48.106Z,2.83
2017-07-06T09:52:17.485Z,3.07
2017-07-06T09:54:46.903Z,2.40
2017-07-06T09:57:16.317Z,2.40
2017-07-06T09:59:45.517Z,3.73
2017-07-06T10:02:14.916Z,4.17
2017-07-06T10:04:44.324Z,2.90
2017-07-06T10:07:13.746Z,2.57
2017-07-06T10:09:43.735Z,3.60
2017-07-06T10:12:13.158Z,12.43
2017-07-06T10:14:42.592Z,2.50
2017-07-06T10:17:12.002Z,2.67
2017-07-06T10:19:41.398Z,14.33
2017-07-06T10:22:10.815Z,8.33
2017-07-06T10:24:40.231Z,3.50
2017-07-06T10:27:09.635Z,4.03
2017-07-06T10:29:39.057Z,8.70
2017-07-06T10:32:08.474Z,16.63
2017-07-06T10:34:37.868Z,4.80
2017-07-06T10:37:07.264Z,4.20
2017-07-06T10:39:36.685Z,12.73
2017-07-06T10:42:06.143Z,5.10
2017-07-06T10:44:35.559Z,3.57
2017-07-06T10:47:04.940Z,4.03
2017-07-06T10:49:34.366Z,3.50
2017-07-06T10:52:03.750Z,2.83
2017-07-06T10:54:33.181Z,3.07
2017-07-06T10:57:02.580Z,2.63
2017-07-06T10:59:31.977Z,2.60
2017-07-06T11:02:01.365Z,2.90
2017-07-06T11:04:30.809Z,2.80
2017-07-06T11:07:00.192Z,3.10
2017-07-06T11:09:29.613Z,2.33
2017-07-06T11:11:59.030Z,2.93
2017-07-06T11:14:28.430Z,3.20
2017-07-06T11:16:57.824Z,3.27
2017-07-06T11:19:27.257Z,3.97
2017-07-06T11:21:57.067Z,12.63
2017-07-06T11:24:27.237Z,2.77
2017-07-06T11:26:56.638Z,3.27
2017-07-06T11:29:26.025Z,2.20
2017-07-06T11:31:55.441Z,3.40
2017-07-06T11:34:24.835Z,7.07
2017-07-06T11:36:54.249Z,2.50
2017-07-06T11:39:23.633Z,3.33
2017-07-06T11:41:53.043Z,6.13
2017-07-06T11:44:22.455Z,4.53
2017-07-06T11:46:51.877Z,2.67
2017-07-06T11:49:21.266Z,4.60
2017-07-06T11:51:50.326Z,5.87
2017-07-06T11:54:19.733Z,5.40
2017-07-06T11:56:49.220Z,2.30
2017-07-06T11:59:19.375Z,2.30
2017-07-06T12:01:48.789Z,2.20
2017-07-06T12:04:18.598Z,2.50
2017-07-06T12:06:48.587Z,7.00
2017-07-06T12:09:17.972Z,3.17
2017-07-06T12:11:47.363Z,3.43
2017-07-06T12:14:16.578Z,2.50
2017-07-06T12:16:45.962Z,4.30
2017-07-06T12:19:15.370Z,4.40
2017-07-06T12:21:44.761Z,2.37
2017-07-06T12:24:14.181Z,2.10
2017-07-06T12:26:43.586Z,2.10
2017-07-06T12:29:12.997Z,7.37
2017-07-06T12:31:42.407Z,3.23
2017-07-06T12:34:12.017Z,2.30
2017-07-06T12:36:41.403Z,2.03
2017-07-06T12:39:10.827Z,2.40
2017-07-06T12:41:39.874Z,2.50
2017-07-06T12:44:09.289Z,2.43
2017-07-06T12:46:38.686Z,2.40
2017-07-06T12:49:08.148Z,3.80
2017-07-06T12:51:37.537Z,3.30
2017-07-06T12:54:06.959Z,2.73
2017-07-06T12:56:36.339Z,3.30
2017-07-06T12:59:05.769Z,2.30
2017-07-06T13:01:35.214Z,2.30
2017-07-06T13:04:04.624Z,2.60
2017-07-06T13:06:34.193Z,2.50
2017-07-06T13:09:03.038Z,2.70
2017-07-06T13:11:32.251Z,3.07
2017-07-06T13:14:01.637Z,2.27
2017-07-06T13:16:31.055Z,3.00
2017-07-06T13:19:00.496Z,3.00
2017-07-06T13:21:30.698Z,3.13
2017-07-06T13:24:00.094Z,2.80
2017-07-06T13:26:29.317Z,1.80
2017-07-06T13:31:28.055Z,3.00
2017-07-06T13:33:57.457Z,2.83
2017-07-06T13:36:26.527Z,3.13
2017-07-06T13:38:56.004Z,2.80
2017-07-06T13:41:25.411Z,2.43
2017-07-06T13:43:54.825Z,2.50
2017-07-06T13:46:24.983Z,3.07
2017-07-06T13:48:54.408Z,2.77
2017-07-06T13:51:23.815Z,4.17
2017-07-06T13:53:53.065Z,75.37
2017-07-06T13:56:23.260Z,3.30
2017-07-06T13:58:52.474Z,3.03
2017-07-06T14:01:22.649Z,2.50
2017-07-06T14:03:52.067Z,2.43
2017-07-06T14:06:21.121Z,2.40
2017-07-06T14:08:50.537Z,2.63
2017-07-06T14:11:19.939Z,2.80
2017-07-06T14:13:49.369Z,3.40
2017-07-06T14:16:18.760Z,3.30
2017-07-06T14:18:48.164Z,2.70
2017-07-06T14:21:17.551Z,2.63
2017-07-06T14:23:46.939Z,2.80
2017-07-06T14:26:16.369Z,2.53
2017-07-06T14:28:45.759Z,4.00
2017-07-06T14:31:15.179Z,5.00
2017-07-06T14:33:44.587Z,3.17
2017-07-06T14:36:14.015Z,3.60
2017-07-06T14:38:43.429Z,4.13
2017-07-06T14:41:12.829Z,4.60
2017-07-06T14:43:42.226Z,3.60
2017-07-06T14:46:11.634Z,5.67
2017-07-06T14:48:41.033Z,2.83
2017-07-06T14:51:10.439Z,3.70
2017-07-06T14:53:39.846Z,2.90
2017-07-06T14:56:09.248Z,2.60
2017-07-06T14:58:38.644Z,3.10
2017-07-06T15:01:08.051Z,2.90
2017-07-06T15:03:37.439Z,3.33
2017-07-06T15:06:06.851Z,8.53
2017-07-06T15:08:36.087Z,4.27
2017-07-06T15:11:05.494Z,2.67
2017-07-06T15:13:34.943Z,3.70
2017-07-06T15:16:04.590Z,3.93
2017-07-06T15:18:35.189Z,2.60
2017-07-06T15:21:04.571Z,3.00
2017-07-06T15:23:33.983Z,3.83
2017-07-06T15:26:03.387Z,4.20
2017-07-06T15:28:32.800Z,3.17
2017-07-06T15:31:02.199Z,7.77
2017-07-06T15:33:31.616Z,4.80
2017-07-06T15:36:01.014Z,4.40
2017-07-06T15:38:30.432Z,3.37
2017-07-06T15:40:59.819Z,8.33
2017-07-06T15:43:29.244Z,4.47
2017-07-06T15:45:58.642Z,4.57
2017-07-06T15:48:28.062Z,7.90
2017-07-06T15:50:58.229Z,4.00
2017-07-06T15:53:27.304Z,5.20
2017-07-06T15:55:56.719Z,3.57
2017-07-06T15:58:26.110Z,3.53
2017-07-06T16:00:55.531Z,3.37
2017-07-06T16:03:24.952Z,3.80
2017-07-06T16:05:55.325Z,3.80
2017-07-06T16:08:24.736Z,6.07
2017-07-06T16:10:54.149Z,3.83
2017-07-06T16:13:23.545Z,6.20
2017-07-06T16:15:52.973Z,6.40
2017-07-06T16:18:22.372Z,5.60
2017-07-06T16:20:51.775Z,4.77
2017-07-06T16:23:21.180Z,3.47
2017-07-06T16:25:50.583Z,8.20
2017-07-06T16:28:19.983Z,4.00
2017-07-06T16:30:49.407Z,310.87
2017-07-06T16:33:19.573Z,6.83
2017-07-06T16:35:49.017Z,205.80
2017-07-06T16:38:18.415Z,14.47
2017-07-06T16:40:47.837Z,750.13
2017-07-06T16:43:17.681Z,951.33
2017-07-06T16:45:47.153Z,928.77
2017-07-06T16:48:17.369Z,34.33
2017-07-06T16:50:46.778Z,5.23
2017-07-06T16:53:16.960Z,5.00
2017-07-06T16:55:46.363Z,3.93
2017-07-06T16:58:15.778Z,3.70
2017-07-06T17:00:45.181Z,3.50
2017-07-06T17:03:14.586Z,3.60
2017-07-06T17:05:43.985Z,6.60
2017-07-06T17:08:13.418Z,4.33
2017-07-06T17:10:43.570Z,8.80
2017-07-06T17:13:12.993Z,11.77
2017-07-06T17:15:42.398Z,3.50
2017-07-06T17:18:11.819Z,4.30
2017-07-06T17:20:41.192Z,5.13
2017-07-06T17:23:10.628Z,4.40
2017-07-06T17:25:40.031Z,3.30
2017-07-06T17:28:09.431Z,5.47
2017-07-06T17:30:38.818Z,5.13
2017-07-06T17:33:08.010Z,4.67
2017-07-06T17:35:37.451Z,4.40
2017-07-06T17:38:06.845Z,4.10
2017-07-06T17:40:36.551Z,6.40
2017-07-06T17:43:05.968Z,5.27
2017-07-06T17:45:35.407Z,4.80
2017-07-06T17:48:04.883Z,3.83
2017-07-06T17:50:34.306Z,4.70
2017-07-06T17:53:04.458Z,5.33
2017-07-06T17:55:33.878Z,6.30
2017-07-06T17:58:03.263Z,5.70
2017-07-06T18:00:32.708Z,44.97
2017-07-06T18:03:02.124Z,5.60
2017-07-06T18:05:31.587Z,5.20
2017-07-06T18:08:00.989Z,5.93
2017-07-06T18:10:30.391Z,6.83
2017-07-06T18:12:59.793Z,4.70
2017-07-06T18:15:29.218Z,5.30
2017-07-06T18:17:58.642Z,6.83
2017-07-06T18:20:28.059Z,5.73
2017-07-06T18:22:57.540Z,6.40
2017-07-06T18:25:26.743Z,5.90
2017-07-06T18:27:56.137Z,7.40
2017-07-06T18:30:25.533Z,4.60
2017-07-06T18:32:54.949Z,6.40
2017-07-06T18:35:24.368Z,4.33
2017-07-06T18:37:53.724Z,4.63
2017-07-06T18:40:23.112Z,6.73
2017-07-06T18:42:52.514Z,5.90
2017-07-06T18:45:21.915Z,6.07
2017-07-06T18:47:51.313Z,5.40
2017-07-06T18:50:20.741Z,7.03
2017-07-06T18:52:50.143Z,5.13
2017-07-06T18:55:19.551Z,4.80
2017-07-06T18:57:48.976Z,5.70
2017-07-06T19:00:18.377Z,5.33
2017-07-06T19:02:47.604Z,117.17
2017-07-06T19:05:17.034Z,46.37
2017-07-06T19:07:47.308Z,13.53
2017-07-06T19:10:16.772Z,6.53
2017-07-06T19:12:46.934Z,5.53
2017-07-06T19:15:16.329Z,4.80
2017-07-06T19:17:45.732Z,4.90
2017-07-06T19:20:15.147Z,5.10
2017-07-06T19:22:44.520Z,5.70
2017-07-06T19:25:14.007Z,5.83
2017-07-06T19:27:43.628Z,41.70
2017-07-06T19:30:13.046Z,23.80
2017-07-06T19:32:42.446Z,6.23
2017-07-06T19:35:11.853Z,5.23
2017-07-06T19:37:41.243Z,5.70
2017-07-06T19:40:10.641Z,5.80
2017-07-06T19:42:40.054Z,5.23
2017-07-06T19:45:09.452Z,5.63
2017-07-06T19:47:38.883Z,4.73
2017-07-06T19:50:08.295Z,5.10
2017-07-06T19:52:37.716Z,5.47
2017-07-06T19:55:07.112Z,5.83
2017-07-06T19:57:36.637Z,5.63
2017-07-06T20:00:06.056Z,5.67
2017-07-06T20:02:35.459Z,5.83
2017-07-06T20:05:04.843Z,5.30
2017-07-06T20:07:34.259Z,5.13
2017-07-06T20:10:03.670Z,5.90
2017-07-06T20:12:33.062Z,5.97
2017-07-06T20:15:02.484Z,6.20
2017-07-06T20:17:31.891Z,5.70
2017-07-06T20:20:01.287Z,5.60
2017-07-06T20:22:30.707Z,6.20
2017-07-06T20:25:00.871Z,6.50
2017-07-06T20:27:29.948Z,5.30
2017-07-06T20:29:59.347Z,5.63
2017-07-06T20:32:28.734Z,6.23
2017-07-06T20:34:58.933Z,5.97
2017-07-06T20:37:28.348Z,5.93
2017-07-06T20:39:57.769Z,5.77
2017-07-06T20:42:27.204Z,5.73
2017-07-06T20:44:56.617Z,5.83
2017-07-06T20:47:26.015Z,5.57
2017-07-06T20:49:55.110Z,5.73
2017-07-06T20:52:24.516Z,5.50
2017-07-06T20:54:53.929Z,5.50
2017-07-06T20:57:24.119Z,5.80
2017-07-06T20:59:53.541Z,4.70
2017-07-06T21:02:22.940Z,7.63
2017-07-06T21:04:52.346Z,8.27
2017-07-06T21:07:21.748Z,5.30
2017-07-06T21:09:51.165Z,5.90
2017-07-06T21:12:20.552Z,5.23
2017-07-06T21:14:49.984Z,5.90
2017-07-06T21:17:20.166Z,5.93
2017-07-06T21:19:49.569Z,5.13
2017-07-06T21:22:18.989Z,5.37
2017-07-06T21:24:48.371Z,4.87
2017-07-06T21:27:17.802Z,5.13
2017-07-06T21:29:47.198Z,5.30
2017-07-06T21:32:16.627Z,5.20
2017-07-06T21:34:46.823Z,4.97
2017-07-06T21:37:16.227Z,4.60
2017-07-06T21:39:45.641Z,5.17
2017-07-06T21:42:15.041Z,5.60
2017-07-06T21:44:44.499Z,4.80
2017-07-06T21:47:13.949Z,4.77
2017-07-06T21:49:43.368Z,4.60
2017-07-06T21:52:13.555Z,4.73
2017-07-06T21:54:42.961Z,5.37
2017-07-06T21:57:12.481Z,5.50
2017-07-06T21:59:42.665Z,5.20
2017-07-06T22:02:12.066Z,4.97
2017-07-06T22:04:41.494Z,5.17
2017-07-06T22:07:10.886Z,5.17
2017-07-06T22:09:40.306Z,4.37
2017-07-06T22:12:09.715Z,5.03
2017-07-06T22:14:39.132Z,4.50
2017-07-06T22:17:09.424Z,4.67
2017-07-06T22:19:38.882Z,4.53
2017-07-06T22:22:08.278Z,4.77
2017-07-06T22:24:38.505Z,4.83
2017-07-06T22:27:08.661Z,5.10
2017-07-06T22:29:38.057Z,4.60
2017-07-06T22:32:07.474Z,4.50
2017-07-06T22:34:37.649Z,4.77
2017-07-06T22:37:07.039Z,5.00
2017-07-06T22:39:36.448Z,4.90
2017-07-06T22:42:05.855Z,4.70
2017-07-06T22:44:35.275Z,4.80
2017-07-06T22:47:04.487Z,4.80
2017-07-06T22:49:33.900Z,5.20
2017-07-06T22:52:03.399Z,5.10
2017-07-06T22:54:32.809Z,4.70
2017-07-06T22:57:02.020Z,4.83
2017-07-06T22:59:32.184Z,4.83
2017-07-06T23:02:01.602Z,5.43
2017-07-06T23:04:31.002Z,4.83
2017-07-06T23:07:00.410Z,4.90
2017-07-06T23:09:29.811Z,4.40
2017-07-06T23:11:59.267Z,4.70
2017-07-06T23:14:29.432Z,4.80
2017-07-06T23:16:59.120Z,4.47
2017-07-06T23:19:28.523Z,4.90
2017-07-06T23:21:57.946Z,5.07
2017-07-06T23:24:27.345Z,4.83
2017-07-06T23:26:56.802Z,5.50
2017-07-06T23:29:26.729Z,4.60
2017-07-06T23:31:56.147Z,5.00
2017-07-06T23:34:25.541Z,5.20
2017-07-06T23:36:55.236Z,4.75
2017-07-06T23:39:25.416Z,4.83
2017-07-06T23:41:55.093Z,4.75
2017-07-06T23:44:24.527Z,4.60
2017-07-06T23:46:53.929Z,4.63
2017-07-06T23:49:23.357Z,5.40
2017-07-06T23:51:52.757Z,4.37
2017-07-06T23:54:22.158Z,5.20
2017-07-06T23:56:51.550Z,4.73
2017-07-06T23:59:20.961Z,5.00
